Aviation Digital Data Service (ADDS)

Output produced by METARs form (1436 UTC 10 December 2016)
found at http://aviationweather.gov/adds/metars/
 
KBVI 101128Z 1012/1112 25007KT P6SM VCSH BKN050 
     FM101500 25007KT P6SM SCT100 
     FM110500 21003KT P6SM BKN030 
     FM110800 17004KT 2SM -SN OVC015